sensor_id;sensor_type;location;lat;lon;timestamp;P1;durP1;ratioP1;P2;durP2;ratioP2
72974;SDS011;61166;54.228;37.632;2022-08-05T00:00:29;27.53;;;16.20;;
72974;SDS011;61166;54.228;37.632;2022-08-05T00:02:54;22.93;;;16.47;;
72974;SDS011;61166;54.228;37.632;2022-08-05T00:05:20;23.87;;;16.23;;
72974;SDS011;61166;54.228;37.632;2022-08-05T00:07:46;27.50;;;15.23;;
72974;SDS011;61166;54.228;37.632;2022-08-05T00:10:11;21.98;;;15.45;;
72974;SDS011;61166;54.228;37.632;2022-08-05T00:12:37;24.10;;;15.17;;
72974;SDS011;61166;54.228;37.632;2022-08-05T00:15:03;23.67;;;14.70;;
72974;SDS011;61166;54.228;37.632;2022-08-05T00:17:29;24.67;;;15.60;;
72974;SDS011;61166;54.228;37.632;2022-08-05T00:19:54;24.90;;;14.90;;
72974;SDS011;61166;54.228;37.632;2022-08-05T00:22:20;26.40;;;15.23;;
72974;SDS011;61166;54.228;37.632;2022-08-05T00:24:45;24.87;;;16.10;;
72974;SDS011;61166;54.228;37.632;2022-08-05T00:27:10;28.83;;;15.70;;
72974;SDS011;61166;54.228;37.632;2022-08-05T00:29:36;24.63;;;15.23;;
72974;SDS011;61166;54.228;37.632;2022-08-05T00:32:01;19.93;;;13.87;;
72974;SDS011;61166;54.228;37.632;2022-08-05T00:34:28;24.73;;;16.07;;
72974;SDS011;61166;54.228;37.632;2022-08-05T00:36:53;23.25;;;15.77;;
72974;SDS011;61166;54.228;37.632;2022-08-05T00:39:19;20.33;;;14.67;;
72974;SDS011;61166;54.228;37.632;2022-08-05T00:41:45;26.23;;;16.23;;
72974;SDS011;61166;54.228;37.632;2022-08-05T00:44:12;22.15;;;14.85;;
72974;SDS011;61166;54.228;37.632;2022-08-05T00:46:37;23.97;;;15.27;;
72974;SDS011;61166;54.228;37.632;2022-08-05T00:49:03;20.98;;;15.02;;
72974;SDS011;61166;54.228;37.632;2022-08-05T00:51:28;25.93;;;16.77;;
72974;SDS011;61166;54.228;37.632;2022-08-05T00:53:54;26.00;;;16.47;;
72974;SDS011;61166;54.228;37.632;2022-08-05T00:56:19;24.33;;;15.13;;
72974;SDS011;61166;54.228;37.632;2022-08-05T00:58:44;24.33;;;15.13;;
72974;SDS011;61166;54.228;37.632;2022-08-05T01:01:10;23.70;;;15.60;;
72974;SDS011;61166;54.228;37.632;2022-08-05T01:03:37;22.98;;;15.80;;
72974;SDS011;61166;54.228;37.632;2022-08-05T01:06:03;25.25;;;15.68;;
72974;SDS011;61166;54.228;37.632;2022-08-05T01:08:29;25.33;;;16.35;;
72974;SDS011;61166;54.228;37.632;2022-08-05T01:10:56;21.70;;;15.33;;
72974;SDS011;61166;54.228;37.632;2022-08-05T01:15:58;20.80;;;14.90;;
72974;SDS011;61166;54.228;37.632;2022-08-05T01:18:31;22.92;;;15.80;;
72974;SDS011;61166;54.228;37.632;2022-08-05T01:21:09;21.27;;;15.13;;
72974;SDS011;61166;54.228;37.632;2022-08-05T01:28:53;23.63;;;15.10;;
72974;SDS011;61166;54.228;37.632;2022-08-05T01:31:24;21.63;;;13.93;;
72974;SDS011;61166;54.228;37.632;2022-08-05T01:33:57;22.30;;;15.38;;
72974;SDS011;61166;54.228;37.632;2022-08-05T01:36:24;20.93;;;15.23;;
72974;SDS011;61166;54.228;37.632;2022-08-05T01:38:53;24.50;;;15.63;;
72974;SDS011;61166;54.228;37.632;2022-08-05T01:41:20;24.27;;;15.75;;
72974;SDS011;61166;54.228;37.632;2022-08-05T01:43:48;20.33;;;14.73;;
72974;SDS011;61166;54.228;37.632;2022-08-05T01:46:16;21.52;;;13.48;;
72974;SDS011;61166;54.228;37.632;2022-08-05T01:48:44;19.10;;;14.27;;
72974;SDS011;61166;54.228;37.632;2022-08-05T01:51:10;19.88;;;13.45;;
72974;SDS011;61166;54.228;37.632;2022-08-05T01:53:38;19.95;;;14.07;;
72974;SDS011;61166;54.228;37.632;2022-08-05T01:56:05;23.42;;;13.70;;
72974;SDS011;61166;54.228;37.632;2022-08-05T01:58:33;20.55;;;13.98;;
72974;SDS011;61166;54.228;37.632;2022-08-05T02:01:00;20.33;;;13.50;;
72974;SDS011;61166;54.228;37.632;2022-08-05T02:03:35;19.80;;;14.23;;
72974;SDS011;61166;54.228;37.632;2022-08-05T02:06:02;21.38;;;14.02;;
72974;SDS011;61166;54.228;37.632;2022-08-05T02:08:32;22.30;;;15.25;;
72974;SDS011;61166;54.228;37.632;2022-08-05T02:11:01;23.45;;;16.10;;
72974;SDS011;61166;54.228;37.632;2022-08-05T02:13:37;22.63;;;15.37;;
72974;SDS011;61166;54.228;37.632;2022-08-05T02:18:49;21.10;;;14.18;;
72974;SDS011;61166;54.228;37.632;2022-08-05T02:21:21;21.05;;;14.38;;
72974;SDS011;61166;54.228;37.632;2022-08-05T02:23:54;22.33;;;14.75;;
72974;SDS011;61166;54.228;37.632;2022-08-05T02:26:24;22.23;;;15.87;;
72974;SDS011;61166;54.228;37.632;2022-08-05T02:28:57;23.33;;;15.93;;
72974;SDS011;61166;54.228;37.632;2022-08-05T02:31:28;24.05;;;14.60;;
72974;SDS011;61166;54.228;37.632;2022-08-05T02:33:57;19.70;;;14.35;;
72974;SDS011;61166;54.228;37.632;2022-08-05T02:36:27;20.90;;;15.05;;
72974;SDS011;61166;54.228;37.632;2022-08-05T02:38:54;20.77;;;14.10;;
72974;SDS011;61166;54.228;37.632;2022-08-05T02:41:21;22.00;;;14.68;;
72974;SDS011;61166;54.228;37.632;2022-08-05T02:43:49;21.63;;;14.73;;
72974;SDS011;61166;54.228;37.632;2022-08-05T02:46:16;20.83;;;14.45;;
72974;SDS011;61166;54.228;37.632;2022-08-05T02:48:44;22.60;;;14.63;;
72974;SDS011;61166;54.228;37.632;2022-08-05T02:51:12;19.30;;;14.37;;
72974;SDS011;61166;54.228;37.632;2022-08-05T02:53:39;21.48;;;14.82;;
72974;SDS011;61166;54.228;37.632;2022-08-05T02:56:07;19.27;;;13.40;;
72974;SDS011;61166;54.228;37.632;2022-08-05T02:58:35;21.88;;;13.65;;
72974;SDS011;61166;54.228;37.632;2022-08-05T03:01:02;24.58;;;15.70;;
72974;SDS011;61166;54.228;37.632;2022-08-05T03:03:29;25.77;;;16.90;;
72974;SDS011;61166;54.228;37.632;2022-08-05T03:05:56;28.52;;;16.65;;
72974;SDS011;61166;54.228;37.632;2022-08-05T03:08:23;26.80;;;16.25;;
72974;SDS011;61166;54.228;37.632;2022-08-05T03:10:49;27.23;;;16.63;;
72974;SDS011;61166;54.228;37.632;2022-08-05T03:13:14;24.48;;;16.17;;
72974;SDS011;61166;54.228;37.632;2022-08-05T03:15:42;30.80;;;18.50;;
72974;SDS011;61166;54.228;37.632;2022-08-05T03:18:08;30.92;;;17.52;;
72974;SDS011;61166;54.228;37.632;2022-08-05T03:20:34;29.58;;;19.80;;
72974;SDS011;61166;54.228;37.632;2022-08-05T03:22:59;32.37;;;19.47;;
72974;SDS011;61166;54.228;37.632;2022-08-05T03:25:25;29.07;;;17.80;;
72974;SDS011;61166;54.228;37.632;2022-08-05T03:27:52;27.75;;;17.80;;
72974;SDS011;61166;54.228;37.632;2022-08-05T03:30:19;32.30;;;19.10;;
72974;SDS011;61166;54.228;37.632;2022-08-05T03:32:45;34.13;;;18.40;;
72974;SDS011;61166;54.228;37.632;2022-08-05T03:35:11;27.42;;;17.25;;
72974;SDS011;61166;54.228;37.632;2022-08-05T03:37:37;30.65;;;17.83;;
72974;SDS011;61166;54.228;37.632;2022-08-05T03:40:03;27.37;;;16.53;;
72974;SDS011;61166;54.228;37.632;2022-08-05T03:42:32;26.42;;;17.63;;
72974;SDS011;61166;54.228;37.632;2022-08-05T03:44:58;31.30;;;18.13;;
72974;SDS011;61166;54.228;37.632;2022-08-05T03:47:24;32.13;;;19.33;;
72974;SDS011;61166;54.228;37.632;2022-08-05T03:49:49;31.63;;;20.20;;
72974;SDS011;61166;54.228;37.632;2022-08-05T03:52:21;29.73;;;19.55;;
72974;SDS011;61166;54.228;37.632;2022-08-05T03:54:53;33.27;;;19.40;;
72974;SDS011;61166;54.228;37.632;2022-08-05T03:57:22;33.65;;;20.77;;
72974;SDS011;61166;54.228;37.632;2022-08-05T03:59:58;30.13;;;19.90;;
72974;SDS011;61166;54.228;37.632;2022-08-05T04:02:26;36.58;;;20.85;;
72974;SDS011;61166;54.228;37.632;2022-08-05T04:04:54;34.42;;;20.63;;
72974;SDS011;61166;54.228;37.632;2022-08-05T04:07:22;29.47;;;18.77;;
72974;SDS011;61166;54.228;37.632;2022-08-05T04:09:48;33.47;;;20.20;;
72974;SDS011;61166;54.228;37.632;2022-08-05T04:12:13;34.53;;;20.88;;
72974;SDS011;61166;54.228;37.632;2022-08-05T04:14:39;35.17;;;18.53;;
72974;SDS011;61166;54.228;37.632;2022-08-05T04:17:07;25.60;;;16.52;;
72974;SDS011;61166;54.228;37.632;2022-08-05T04:19:39;31.17;;;20.00;;
72974;SDS011;61166;54.228;37.632;2022-08-05T04:22:06;30.85;;;19.35;;
72974;SDS011;61166;54.228;37.632;2022-08-05T04:24:32;34.83;;;20.83;;
72974;SDS011;61166;54.228;37.632;2022-08-05T04:26:57;33.33;;;19.88;;
72974;SDS011;61166;54.228;37.632;2022-08-05T04:29:22;26.77;;;18.23;;
72974;SDS011;61166;54.228;37.632;2022-08-05T04:31:48;25.80;;;18.83;;
72974;SDS011;61166;54.228;37.632;2022-08-05T04:34:13;32.63;;;20.57;;
72974;SDS011;61166;54.228;37.632;2022-08-05T04:36:39;33.27;;;21.57;;
72974;SDS011;61166;54.228;37.632;2022-08-05T04:39:04;30.47;;;19.67;;
72974;SDS011;61166;54.228;37.632;2022-08-05T04:41:29;27.03;;;20.07;;
72974;SDS011;61166;54.228;37.632;2022-08-05T04:43:56;28.77;;;19.75;;
72974;SDS011;61166;54.228;37.632;2022-08-05T04:46:21;26.63;;;17.70;;
72974;SDS011;61166;54.228;37.632;2022-08-05T04:48:46;28.37;;;18.93;;
72974;SDS011;61166;54.228;37.632;2022-08-05T04:51:12;28.77;;;20.60;;
72974;SDS011;61166;54.228;37.632;2022-08-05T04:53:37;26.87;;;19.20;;
72974;SDS011;61166;54.228;37.632;2022-08-05T04:56:04;37.40;;;20.10;;
72974;SDS011;61166;54.228;37.632;2022-08-05T04:58:32;31.77;;;20.85;;
72974;SDS011;61166;54.228;37.632;2022-08-05T05:00:57;28.27;;;19.17;;
72974;SDS011;61166;54.228;37.632;2022-08-05T05:03:23;28.00;;;18.23;;
72974;SDS011;61166;54.228;37.632;2022-08-05T05:05:49;25.47;;;18.43;;
72974;SDS011;61166;54.228;37.632;2022-08-05T05:08:14;29.97;;;18.63;;
72974;SDS011;61166;54.228;37.632;2022-08-05T05:10:43;28.87;;;18.23;;
72974;SDS011;61166;54.228;37.632;2022-08-05T05:13:10;27.38;;;17.83;;
72974;SDS011;61166;54.228;37.632;2022-08-05T05:15:37;27.42;;;18.25;;
72974;SDS011;61166;54.228;37.632;2022-08-05T05:18:03;25.83;;;19.15;;
72974;SDS011;61166;54.228;37.632;2022-08-05T05:20:28;28.33;;;17.90;;
72974;SDS011;61166;54.228;37.632;2022-08-05T05:22:56;28.60;;;19.10;;
72974;SDS011;61166;54.228;37.632;2022-08-05T05:25:22;27.17;;;18.70;;
72974;SDS011;61166;54.228;37.632;2022-08-05T05:27:47;28.93;;;18.60;;
72974;SDS011;61166;54.228;37.632;2022-08-05T05:30:13;27.93;;;18.20;;
72974;SDS011;61166;54.228;37.632;2022-08-05T05:32:39;27.45;;;19.13;;
72974;SDS011;61166;54.228;37.632;2022-08-05T05:35:05;27.43;;;18.90;;
72974;SDS011;61166;54.228;37.632;2022-08-05T05:37:30;29.17;;;18.30;;
72974;SDS011;61166;54.228;37.632;2022-08-05T05:39:56;28.90;;;17.47;;
72974;SDS011;61166;54.228;37.632;2022-08-05T05:42:21;30.07;;;19.37;;
72974;SDS011;61166;54.228;37.632;2022-08-05T05:44:46;31.17;;;17.85;;
72974;SDS011;61166;54.228;37.632;2022-08-05T05:47:12;30.20;;;17.33;;
72974;SDS011;61166;54.228;37.632;2022-08-05T05:49:37;28.20;;;17.70;;
72974;SDS011;61166;54.228;37.632;2022-08-05T05:52:03;27.60;;;16.73;;
72974;SDS011;61166;54.228;37.632;2022-08-05T05:54:29;24.90;;;16.75;;
72974;SDS011;61166;54.228;37.632;2022-08-05T05:56:55;24.40;;;17.45;;
72974;SDS011;61166;54.228;37.632;2022-08-05T05:59:21;24.87;;;16.43;;
72974;SDS011;61166;54.228;37.632;2022-08-05T06:01:46;24.80;;;16.90;;
72974;SDS011;61166;54.228;37.632;2022-08-05T06:04:12;24.90;;;17.57;;
72974;SDS011;61166;54.228;37.632;2022-08-05T06:06:41;24.75;;;16.75;;
72974;SDS011;61166;54.228;37.632;2022-08-05T06:09:08;21.75;;;16.55;;
72974;SDS011;61166;54.228;37.632;2022-08-05T06:11:34;25.53;;;17.23;;
72974;SDS011;61166;54.228;37.632;2022-08-05T06:13:59;22.52;;;17.08;;
72974;SDS011;61166;54.228;37.632;2022-08-05T06:16:25;25.03;;;16.57;;
72974;SDS011;61166;54.228;37.632;2022-08-05T06:18:51;21.90;;;16.20;;
72974;SDS011;61166;54.228;37.632;2022-08-05T06:21:16;22.60;;;17.63;;
72974;SDS011;61166;54.228;37.632;2022-08-05T06:23:42;25.37;;;17.73;;
72974;SDS011;61166;54.228;37.632;2022-08-05T06:26:07;22.83;;;17.50;;
72974;SDS011;61166;54.228;37.632;2022-08-05T06:28:33;22.63;;;17.43;;
72974;SDS011;61166;54.228;37.632;2022-08-05T06:30:58;28.00;;;17.00;;
72974;SDS011;61166;54.228;37.632;2022-08-05T06:33:24;26.95;;;17.42;;
72974;SDS011;61166;54.228;37.632;2022-08-05T06:35:50;28.67;;;18.57;;
72974;SDS011;61166;54.228;37.632;2022-08-05T06:38:15;22.17;;;18.27;;
72974;SDS011;61166;54.228;37.632;2022-08-05T06:40:41;25.63;;;16.83;;
72974;SDS011;61166;54.228;37.632;2022-08-05T06:43:07;24.42;;;19.27;;
72974;SDS011;61166;54.228;37.632;2022-08-05T06:45:32;23.53;;;19.87;;
72974;SDS011;61166;54.228;37.632;2022-08-05T06:47:58;23.73;;;18.90;;
72974;SDS011;61166;54.228;37.632;2022-08-05T06:50:23;24.03;;;19.67;;
72974;SDS011;61166;54.228;37.632;2022-08-05T06:52:50;20.55;;;18.40;;
72974;SDS011;61166;54.228;37.632;2022-08-05T06:55:15;19.37;;;17.33;;
72974;SDS011;61166;54.228;37.632;2022-08-05T06:57:41;18.92;;;17.10;;
72974;SDS011;61166;54.228;37.632;2022-08-05T07:00:07;17.70;;;16.10;;
72974;SDS011;61166;54.228;37.632;2022-08-05T07:02:40;17.42;;;15.65;;
72974;SDS011;61166;54.228;37.632;2022-08-05T07:05:06;18.38;;;16.33;;
72974;SDS011;61166;54.228;37.632;2022-08-05T07:07:32;18.17;;;16.38;;
72974;SDS011;61166;54.228;37.632;2022-08-05T07:09:57;18.73;;;16.87;;
72974;SDS011;61166;54.228;37.632;2022-08-05T07:12:22;19.43;;;16.77;;
72974;SDS011;61166;54.228;37.632;2022-08-05T07:15:06;18.17;;;16.30;;
72974;SDS011;61166;54.228;37.632;2022-08-05T07:17:51;18.30;;;16.55;;
72974;SDS011;61166;54.228;37.632;2022-08-05T07:20:16;17.97;;;15.90;;
72974;SDS011;61166;54.228;37.632;2022-08-05T07:22:41;19.80;;;17.73;;
72974;SDS011;61166;54.228;37.632;2022-08-05T07:25:07;19.53;;;17.57;;
72974;SDS011;61166;54.228;37.632;2022-08-05T07:27:32;19.25;;;17.25;;
72974;SDS011;61166;54.228;37.632;2022-08-05T07:29:58;18.47;;;16.50;;
72974;SDS011;61166;54.228;37.632;2022-08-05T07:32:23;16.83;;;15.30;;
72974;SDS011;61166;54.228;37.632;2022-08-05T07:34:48;17.23;;;15.50;;
72974;SDS011;61166;54.228;37.632;2022-08-05T07:37:14;17.57;;;15.77;;
72974;SDS011;61166;54.228;37.632;2022-08-05T07:39:39;18.17;;;15.50;;
72974;SDS011;61166;54.228;37.632;2022-08-05T07:42:05;20.23;;;15.07;;
72974;SDS011;61166;54.228;37.632;2022-08-05T07:44:30;14.90;;;13.57;;
72974;SDS011;61166;54.228;37.632;2022-08-05T07:46:55;14.23;;;13.03;;
72974;SDS011;61166;54.228;37.632;2022-08-05T07:49:21;15.07;;;13.70;;
72974;SDS011;61166;54.228;37.632;2022-08-05T07:51:46;17.35;;;15.85;;
72974;SDS011;61166;54.228;37.632;2022-08-05T07:54:12;18.27;;;16.07;;
72974;SDS011;61166;54.228;37.632;2022-08-05T07:56:37;18.93;;;17.13;;
72974;SDS011;61166;54.228;37.632;2022-08-05T07:59:03;17.63;;;15.87;;
72974;SDS011;61166;54.228;37.632;2022-08-05T08:01:28;18.50;;;16.83;;
72974;SDS011;61166;54.228;37.632;2022-08-05T08:03:53;17.93;;;16.13;;
72974;SDS011;61166;54.228;37.632;2022-08-05T08:06:19;17.03;;;15.43;;
72974;SDS011;61166;54.228;37.632;2022-08-05T08:08:44;17.33;;;15.80;;
72974;SDS011;61166;54.228;37.632;2022-08-05T08:11:09;15.70;;;13.90;;
72974;SDS011;61166;54.228;37.632;2022-08-05T08:13:35;15.37;;;13.87;;
72974;SDS011;61166;54.228;37.632;2022-08-05T08:16:00;15.37;;;14.07;;
72974;SDS011;61166;54.228;37.632;2022-08-05T08:18:26;16.47;;;14.97;;
72974;SDS011;61166;54.228;37.632;2022-08-05T08:20:51;17.25;;;15.43;;
72974;SDS011;61166;54.228;37.632;2022-08-05T08:23:17;17.23;;;14.47;;
72974;SDS011;61166;54.228;37.632;2022-08-05T08:25:43;18.70;;;16.73;;
72974;SDS011;61166;54.228;37.632;2022-08-05T08:28:08;17.35;;;14.95;;
72974;SDS011;61166;54.228;37.632;2022-08-05T08:30:34;16.30;;;14.80;;
72974;SDS011;61166;54.228;37.632;2022-08-05T08:33:00;16.13;;;14.43;;
72974;SDS011;61166;54.228;37.632;2022-08-05T08:35:35;14.53;;;13.13;;
72974;SDS011;61166;54.228;37.632;2022-08-05T08:38:01;12.32;;;11.32;;
72974;SDS011;61166;54.228;37.632;2022-08-05T08:40:28;13.40;;;12.20;;
72974;SDS011;61166;54.228;37.632;2022-08-05T08:42:57;12.20;;;11.10;;
72974;SDS011;61166;54.228;37.632;2022-08-05T08:45:23;11.65;;;10.43;;
72974;SDS011;61166;54.228;37.632;2022-08-05T08:47:49;12.50;;;10.73;;
72974;SDS011;61166;54.228;37.632;2022-08-05T08:50:18;11.00;;;10.10;;
72974;SDS011;61166;54.228;37.632;2022-08-05T08:52:46;12.32;;;11.13;;
72974;SDS011;61166;54.228;37.632;2022-08-05T08:55:16;13.17;;;12.07;;
72974;SDS011;61166;54.228;37.632;2022-08-05T08:57:41;10.93;;;9.88;;
72974;SDS011;61166;54.228;37.632;2022-08-05T09:00:07;11.20;;;10.10;;
72974;SDS011;61166;54.228;37.632;2022-08-05T09:02:34;11.93;;;10.88;;
72974;SDS011;61166;54.228;37.632;2022-08-05T09:04:59;11.55;;;10.60;;
72974;SDS011;61166;54.228;37.632;2022-08-05T09:07:25;13.33;;;10.93;;
72974;SDS011;61166;54.228;37.632;2022-08-05T09:09:51;11.57;;;10.47;;
72974;SDS011;61166;54.228;37.632;2022-08-05T09:12:16;11.03;;;9.97;;
72974;SDS011;61166;54.228;37.632;2022-08-05T09:14:41;11.87;;;10.77;;
72974;SDS011;61166;54.228;37.632;2022-08-05T09:17:08;10.40;;;8.80;;
72974;SDS011;61166;54.228;37.632;2022-08-05T09:19:35;11.40;;;9.80;;
72974;SDS011;61166;54.228;37.632;2022-08-05T09:22:01;9.63;;;8.75;;
72974;SDS011;61166;54.228;37.632;2022-08-05T09:24:26;10.10;;;9.20;;
72974;SDS011;61166;54.228;37.632;2022-08-05T09:26:55;10.98;;;9.77;;
72974;SDS011;61166;54.228;37.632;2022-08-05T09:29:23;9.50;;;8.70;;
72974;SDS011;61166;54.228;37.632;2022-08-05T09:32:09;15.73;;;9.13;;
72974;SDS011;61166;54.228;37.632;2022-08-05T09:35:36;11.80;;;10.55;;
72974;SDS011;61166;54.228;37.632;2022-08-05T09:37:50;14.77;;;10.48;;
72974;SDS011;61166;54.228;37.632;2022-08-05T09:40:33;11.00;;;8.85;;
72974;SDS011;61166;54.228;37.632;2022-08-05T09:43:03;12.13;;;8.70;;
72974;SDS011;61166;54.228;37.632;2022-08-05T09:45:49;10.80;;;9.30;;
72974;SDS011;61166;54.228;37.632;2022-08-05T09:48:18;15.90;;;9.82;;
72974;SDS011;61166;54.228;37.632;2022-08-05T09:50:47;10.90;;;9.48;;
72974;SDS011;61166;54.228;37.632;2022-08-05T09:53:14;10.00;;;9.05;;
72974;SDS011;61166;54.228;37.632;2022-08-05T09:55:39;11.87;;;8.73;;
72974;SDS011;61166;54.228;37.632;2022-08-05T09:58:11;14.87;;;8.93;;
72974;SDS011;61166;54.228;37.632;2022-08-05T10:00:38;8.93;;;8.13;;
72974;SDS011;61166;54.228;37.632;2022-08-05T10:03:08;9.85;;;8.85;;
72974;SDS011;61166;54.228;37.632;2022-08-05T10:05:35;9.80;;;7.95;;
72974;SDS011;61166;54.228;37.632;2022-08-05T10:08:04;7.93;;;6.73;;
72974;SDS011;61166;54.228;37.632;2022-08-05T10:13:02;8.43;;;7.18;;
72974;SDS011;61166;54.228;37.632;2022-08-05T10:15:32;9.23;;;6.30;;
72974;SDS011;61166;54.228;37.632;2022-08-05T10:20:31;9.03;;;6.13;;
72974;SDS011;61166;54.228;37.632;2022-08-05T10:22:58;7.75;;;5.82;;
72974;SDS011;61166;54.228;37.632;2022-08-05T10:25:25;9.18;;;6.68;;
72974;SDS011;61166;54.228;37.632;2022-08-05T10:27:50;6.70;;;6.00;;
72974;SDS011;61166;54.228;37.632;2022-08-05T10:30:17;8.90;;;6.30;;
72974;SDS011;61166;54.228;37.632;2022-08-05T10:32:43;11.27;;;6.22;;
72974;SDS011;61166;54.228;37.632;2022-08-05T10:35:10;8.15;;;6.45;;
72974;SDS011;61166;54.228;37.632;2022-08-05T10:37:36;9.17;;;7.13;;
72974;SDS011;61166;54.228;37.632;2022-08-05T10:40:02;9.17;;;6.57;;
72974;SDS011;61166;54.228;37.632;2022-08-05T10:42:31;8.35;;;5.97;;
72974;SDS011;61166;54.228;37.632;2022-08-05T10:45:05;8.63;;;6.45;;
72974;SDS011;61166;54.228;37.632;2022-08-05T10:47:32;7.15;;;6.28;;
72974;SDS011;61166;54.228;37.632;2022-08-05T10:55:16;8.63;;;6.93;;
72974;SDS011;61166;54.228;37.632;2022-08-05T10:57:42;6.95;;;6.20;;
72974;SDS011;61166;54.228;37.632;2022-08-05T11:05:41;9.65;;;7.03;;
72974;SDS011;61166;54.228;37.632;2022-08-05T11:08:27;10.80;;;7.10;;
72974;SDS011;61166;54.228;37.632;2022-08-05T11:10:53;8.60;;;6.70;;
72974;SDS011;61166;54.228;37.632;2022-08-05T11:16:20;9.47;;;7.73;;
72974;SDS011;61166;54.228;37.632;2022-08-05T11:18:47;7.45;;;5.90;;
72974;SDS011;61166;54.228;37.632;2022-08-05T11:21:30;9.60;;;6.93;;
72974;SDS011;61166;54.228;37.632;2022-08-05T11:24:06;8.00;;;6.37;;
72974;SDS011;61166;54.228;37.632;2022-08-05T11:26:34;9.13;;;5.93;;
72974;SDS011;61166;54.228;37.632;2022-08-05T11:29:01;7.22;;;6.03;;
72974;SDS011;61166;54.228;37.632;2022-08-05T11:31:29;6.97;;;5.67;;
72974;SDS011;61166;54.228;37.632;2022-08-05T11:34:03;8.70;;;6.38;;
72974;SDS011;61166;54.228;37.632;2022-08-05T11:36:49;8.10;;;5.93;;
72974;SDS011;61166;54.228;37.632;2022-08-05T11:39:18;7.90;;;6.22;;
72974;SDS011;61166;54.228;37.632;2022-08-05T11:42:15;9.75;;;6.25;;
72974;SDS011;61166;54.228;37.632;2022-08-05T11:44:46;8.47;;;6.40;;
72974;SDS011;61166;54.228;37.632;2022-08-05T11:47:11;7.88;;;6.10;;
72974;SDS011;61166;54.228;37.632;2022-08-05T11:49:37;8.33;;;6.93;;
72974;SDS011;61166;54.228;37.632;2022-08-05T11:52:03;8.85;;;6.30;;
72974;SDS011;61166;54.228;37.632;2022-08-05T11:54:29;6.80;;;6.10;;
72974;SDS011;61166;54.228;37.632;2022-08-05T11:57:02;11.80;;;6.72;;
72974;SDS011;61166;54.228;37.632;2022-08-05T11:59:29;8.43;;;5.68;;
72974;SDS011;61166;54.228;37.632;2022-08-05T12:02:04;9.07;;;6.03;;
72974;SDS011;61166;54.228;37.632;2022-08-05T12:07:12;8.32;;;5.90;;
72974;SDS011;61166;54.228;37.632;2022-08-05T12:09:42;8.30;;;6.68;;
72974;SDS011;61166;54.228;37.632;2022-08-05T12:12:11;8.63;;;7.07;;
72974;SDS011;61166;54.228;37.632;2022-08-05T12:14:38;11.13;;;7.47;;
72974;SDS011;61166;54.228;37.632;2022-08-05T12:17:11;11.25;;;6.43;;
72974;SDS011;61166;54.228;37.632;2022-08-05T12:22:06;9.25;;;6.95;;
72974;SDS011;61166;54.228;37.632;2022-08-05T12:24:32;8.57;;;6.60;;
72974;SDS011;61166;54.228;37.632;2022-08-05T12:26:59;8.50;;;6.90;;
72974;SDS011;61166;54.228;37.632;2022-08-05T12:29:26;7.30;;;6.60;;
72974;SDS011;61166;54.228;37.632;2022-08-05T12:31:53;8.95;;;6.93;;
72974;SDS011;61166;54.228;37.632;2022-08-05T12:34:21;7.40;;;6.68;;
72974;SDS011;61166;54.228;37.632;2022-08-05T12:36:50;11.40;;;6.75;;
72974;SDS011;61166;54.228;37.632;2022-08-05T12:39:17;8.52;;;6.55;;
72974;SDS011;61166;54.228;37.632;2022-08-05T12:41:43;10.17;;;6.83;;
72974;SDS011;61166;54.228;37.632;2022-08-05T12:44:13;7.32;;;6.63;;
72974;SDS011;61166;54.228;37.632;2022-08-05T12:46:40;7.40;;;6.65;;
72974;SDS011;61166;54.228;37.632;2022-08-05T12:49:10;8.03;;;6.80;;
72974;SDS011;61166;54.228;37.632;2022-08-05T12:51:56;7.43;;;6.72;;
72974;SDS011;61166;54.228;37.632;2022-08-05T12:54:24;10.38;;;7.35;;
72974;SDS011;61166;54.228;37.632;2022-08-05T12:56:54;9.38;;;7.43;;
72974;SDS011;61166;54.228;37.632;2022-08-05T13:04:40;7.57;;;6.78;;
72974;SDS011;61166;54.228;37.632;2022-08-05T13:07:11;9.02;;;6.95;;
72974;SDS011;61166;54.228;37.632;2022-08-05T13:09:38;11.50;;;8.10;;
72974;SDS011;61166;54.228;37.632;2022-08-05T13:12:06;12.77;;;9.30;;
72974;SDS011;61166;54.228;37.632;2022-08-05T13:14:42;8.67;;;5.93;;
72974;SDS011;61166;54.228;37.632;2022-08-05T13:19:42;10.32;;;6.72;;
72974;SDS011;61166;54.228;37.632;2022-08-05T13:22:32;9.20;;;6.80;;
72974;SDS011;61166;54.228;37.632;2022-08-05T13:25:00;8.90;;;6.30;;
72974;SDS011;61166;54.228;37.632;2022-08-05T13:27:30;8.83;;;6.50;;
72974;SDS011;61166;54.228;37.632;2022-08-05T13:29:57;8.10;;;6.00;;
72974;SDS011;61166;54.228;37.632;2022-08-05T13:32:23;7.18;;;6.00;;
72974;SDS011;61166;54.228;37.632;2022-08-05T13:34:48;10.40;;;6.00;;
72974;SDS011;61166;54.228;37.632;2022-08-05T13:37:15;8.13;;;6.03;;
72974;SDS011;61166;54.228;37.632;2022-08-05T13:39:42;7.65;;;6.28;;
72974;SDS011;61166;54.228;37.632;2022-08-05T13:42:08;8.13;;;6.03;;
72974;SDS011;61166;54.228;37.632;2022-08-05T13:44:34;8.75;;;6.35;;
72974;SDS011;61166;54.228;37.632;2022-08-05T13:46:59;7.87;;;6.30;;
72974;SDS011;61166;54.228;37.632;2022-08-05T13:49:25;9.60;;;6.07;;
72974;SDS011;61166;54.228;37.632;2022-08-05T13:51:50;11.33;;;6.13;;
72974;SDS011;61166;54.228;37.632;2022-08-05T13:54:15;20.98;;;6.53;;
72974;SDS011;61166;54.228;37.632;2022-08-05T13:56:42;5.97;;;5.30;;
72974;SDS011;61166;54.228;37.632;2022-08-05T13:59:08;13.55;;;6.03;;
72974;SDS011;61166;54.228;37.632;2022-08-05T14:01:34;8.27;;;5.53;;
72974;SDS011;61166;54.228;37.632;2022-08-05T14:03:59;7.95;;;6.10;;
72974;SDS011;61166;54.228;37.632;2022-08-05T14:06:43;7.35;;;6.45;;
72974;SDS011;61166;54.228;37.632;2022-08-05T14:09:08;9.53;;;6.80;;
72974;SDS011;61166;54.228;37.632;2022-08-05T14:11:34;8.70;;;6.20;;
72974;SDS011;61166;54.228;37.632;2022-08-05T14:14:03;8.25;;;6.18;;
72974;SDS011;61166;54.228;37.632;2022-08-05T14:16:28;9.87;;;7.13;;
72974;SDS011;61166;54.228;37.632;2022-08-05T14:18:54;9.87;;;6.80;;
72974;SDS011;61166;54.228;37.632;2022-08-05T14:21:19;9.25;;;5.70;;
72974;SDS011;61166;54.228;37.632;2022-08-05T14:23:44;13.93;;;7.63;;
72974;SDS011;61166;54.228;37.632;2022-08-05T14:26:10;22.47;;;10.30;;
72974;SDS011;61166;54.228;37.632;2022-08-05T14:28:35;11.83;;;7.87;;
72974;SDS011;61166;54.228;37.632;2022-08-05T14:31:01;9.80;;;7.03;;
72974;SDS011;61166;54.228;37.632;2022-08-05T14:33:26;8.17;;;7.07;;
72974;SDS011;61166;54.228;37.632;2022-08-05T14:35:52;13.23;;;6.30;;
72974;SDS011;61166;54.228;37.632;2022-08-05T14:38:18;11.63;;;6.20;;
72974;SDS011;61166;54.228;37.632;2022-08-05T14:40:43;8.77;;;5.60;;
72974;SDS011;61166;54.228;37.632;2022-08-05T14:43:08;9.43;;;5.57;;
72974;SDS011;61166;54.228;37.632;2022-08-05T14:45:34;12.03;;;5.53;;
72974;SDS011;61166;54.228;37.632;2022-08-05T14:47:59;9.37;;;6.07;;
72974;SDS011;61166;54.228;37.632;2022-08-05T14:50:24;8.63;;;5.63;;
72974;SDS011;61166;54.228;37.632;2022-08-05T14:52:50;9.47;;;6.10;;
72974;SDS011;61166;54.228;37.632;2022-08-05T14:55:16;8.52;;;5.82;;
72974;SDS011;61166;54.228;37.632;2022-08-05T14:57:41;9.00;;;5.73;;
72974;SDS011;61166;54.228;37.632;2022-08-05T15:00:07;12.23;;;6.33;;